sensor_id;sensor_type;location;lat;lon;timestamp;temperature;humidity
33414;DHT22;60055;41.884;12.534;2022-09-09T00:00:12;26.70;99.90
33414;DHT22;60055;41.884;12.534;2022-09-09T00:02:39;26.70;99.90
33414;DHT22;60055;41.884;12.534;2022-09-09T00:05:27;26.60;99.90
33414;DHT22;60055;41.884;12.534;2022-09-09T00:07:55;26.50;99.90
33414;DHT22;60055;41.884;12.534;2022-09-09T00:15:37;26.50;99.90
33414;DHT22;60055;41.884;12.534;2022-09-09T00:21:06;26.50;99.90
33414;DHT22;60055;41.884;12.534;2022-09-09T00:23:39;26.60;99.90
33414;DHT22;60055;41.884;12.534;2022-09-09T00:29:05;26.70;99.90
33414;DHT22;60055;41.884;12.534;2022-09-09T00:31:35;26.60;99.90
33414;DHT22;60055;41.884;12.534;2022-09-09T00:36:38;26.40;99.90
33414;DHT22;60055;41.884;12.534;2022-09-09T00:39:05;26.40;99.90
33414;DHT22;60055;41.884;12.534;2022-09-09T00:42:12;26.30;99.90
33414;DHT22;60055;41.884;12.534;2022-09-09T00:44:37;26.20;99.90
33414;DHT22;60055;41.884;12.534;2022-09-09T00:47:29;26.20;99.90
33414;DHT22;60055;41.884;12.534;2022-09-09T00:50:10;26.20;99.90
33414;DHT22;60055;41.884;12.534;2022-09-09T00:55:45;26.20;99.90
33414;DHT22;60055;41.884;12.534;2022-09-09T00:58:13;26.20;99.90
33414;DHT22;60055;41.884;12.534;2022-09-09T01:00:52;26.20;99.90
33414;DHT22;60055;41.884;12.534;2022-09-09T01:03:37;26.20;99.90
33414;DHT22;60055;41.884;12.534;2022-09-09T01:11:28;26.60;99.90
33414;DHT22;60055;41.884;12.534;2022-09-09T01:25:19;26.70;99.90
33414;DHT22;60055;41.884;12.534;2022-09-09T01:27:48;26.70;99.90
33414;DHT22;60055;41.884;12.534;2022-09-09T01:30:16;26.70;99.90
33414;DHT22;60055;41.884;12.534;2022-09-09T01:38:02;26.70;99.90
33414;DHT22;60055;41.884;12.534;2022-09-09T01:40:28;26.60;99.90
33414;DHT22;60055;41.884;12.534;2022-09-09T01:42:54;26.60;99.90
33414;DHT22;60055;41.884;12.534;2022-09-09T01:45:21;26.70;99.90
33414;DHT22;60055;41.884;12.534;2022-09-09T01:47:48;26.60;99.90
33414;DHT22;60055;41.884;12.534;2022-09-09T01:50:16;26.60;99.90
33414;DHT22;60055;41.884;12.534;2022-09-09T01:52:43;26.60;99.90
33414;DHT22;60055;41.884;12.534;2022-09-09T01:55:13;26.60;99.90
33414;DHT22;60055;41.884;12.534;2022-09-09T02:01:06;26.60;99.90
33414;DHT22;60055;41.884;12.534;2022-09-09T02:03:35;26.60;99.90
33414;DHT22;60055;41.884;12.534;2022-09-09T02:06:24;26.60;99.90
33414;DHT22;60055;41.884;12.534;2022-09-09T02:08:53;26.40;99.90
33414;DHT22;60055;41.884;12.534;2022-09-09T02:11:23;26.40;99.90
33414;DHT22;60055;41.884;12.534;2022-09-09T02:13:57;26.40;99.90
33414;DHT22;60055;41.884;12.534;2022-09-09T02:16:39;26.30;99.90
33414;DHT22;60055;41.884;12.534;2022-09-09T02:19:26;26.40;99.90
33414;DHT22;60055;41.884;12.534;2022-09-09T02:21:58;26.40;99.90
33414;DHT22;60055;41.884;12.534;2022-09-09T02:24:26;26.40;99.90
33414;DHT22;60055;41.884;12.534;2022-09-09T02:26:54;26.40;99.90
33414;DHT22;60055;41.884;12.534;2022-09-09T02:29:28;26.30;99.90
33414;DHT22;60055;41.884;12.534;2022-09-09T02:32:00;26.40;99.90
33414;DHT22;60055;41.884;12.534;2022-09-09T02:34:30;26.40;99.90
33414;DHT22;60055;41.884;12.534;2022-09-09T02:36:58;26.30;99.90
33414;DHT22;60055;41.884;12.534;2022-09-09T02:39:25;26.30;99.90
33414;DHT22;60055;41.884;12.534;2022-09-09T02:41:51;26.30;99.90
33414;DHT22;60055;41.884;12.534;2022-09-09T02:44:18;26.40;99.90
33414;DHT22;60055;41.884;12.534;2022-09-09T02:47:15;26.40;99.90
33414;DHT22;60055;41.884;12.534;2022-09-09T02:52:08;26.30;99.90
33414;DHT22;60055;41.884;12.534;2022-09-09T02:54:39;26.30;99.90
33414;DHT22;60055;41.884;12.534;2022-09-09T02:57:25;26.30;99.90
33414;DHT22;60055;41.884;12.534;2022-09-09T02:59:52;26.20;99.90
33414;DHT22;60055;41.884;12.534;2022-09-09T03:02:18;26.20;99.90
33414;DHT22;60055;41.884;12.534;2022-09-09T03:04:44;26.20;99.90
33414;DHT22;60055;41.884;12.534;2022-09-09T03:07:16;26.20;99.90
33414;DHT22;60055;41.884;12.534;2022-09-09T03:09:42;26.20;99.90
33414;DHT22;60055;41.884;12.534;2022-09-09T03:12:08;26.30;99.90
33414;DHT22;60055;41.884;12.534;2022-09-09T03:14:35;26.30;99.90
33414;DHT22;60055;41.884;12.534;2022-09-09T03:17:04;26.20;99.90
33414;DHT22;60055;41.884;12.534;2022-09-09T03:19:29;26.20;99.90
33414;DHT22;60055;41.884;12.534;2022-09-09T03:21:55;26.20;99.90
33414;DHT22;60055;41.884;12.534;2022-09-09T03:24:21;26.20;99.90
33414;DHT22;60055;41.884;12.534;2022-09-09T03:26:48;26.20;99.90
33414;DHT22;60055;41.884;12.534;2022-09-09T03:29:14;26.30;99.90
33414;DHT22;60055;41.884;12.534;2022-09-09T03:31:40;26.20;99.90
33414;DHT22;60055;41.884;12.534;2022-09-09T03:34:06;26.30;99.90
33414;DHT22;60055;41.884;12.534;2022-09-09T03:36:32;26.30;99.90
33414;DHT22;60055;41.884;12.534;2022-09-09T03:38:58;26.20;99.90
33414;DHT22;60055;41.884;12.534;2022-09-09T03:41:25;26.10;99.90
33414;DHT22;60055;41.884;12.534;2022-09-09T03:43:51;26.10;99.90
33414;DHT22;60055;41.884;12.534;2022-09-09T03:46:18;26.10;99.90
33414;DHT22;60055;41.884;12.534;2022-09-09T03:48:43;26.10;99.90
33414;DHT22;60055;41.884;12.534;2022-09-09T03:51:11;26.00;99.90
33414;DHT22;60055;41.884;12.534;2022-09-09T03:53:37;26.00;99.90
33414;DHT22;60055;41.884;12.534;2022-09-09T03:56:04;25.90;99.90
33414;DHT22;60055;41.884;12.534;2022-09-09T03:58:33;25.90;99.90
33414;DHT22;60055;41.884;12.534;2022-09-09T04:01:00;25.90;99.90
33414;DHT22;60055;41.884;12.534;2022-09-09T04:03:27;25.90;99.90
33414;DHT22;60055;41.884;12.534;2022-09-09T04:05:53;25.90;99.90
33414;DHT22;60055;41.884;12.534;2022-09-09T04:08:20;25.90;99.90
33414;DHT22;60055;41.884;12.534;2022-09-09T04:10:47;25.80;99.90
33414;DHT22;60055;41.884;12.534;2022-09-09T04:13:14;25.90;99.90
33414;DHT22;60055;41.884;12.534;2022-09-09T04:15:43;25.80;99.90
33414;DHT22;60055;41.884;12.534;2022-09-09T04:18:09;25.60;99.90
33414;DHT22;60055;41.884;12.534;2022-09-09T04:20:35;25.50;99.90
33414;DHT22;60055;41.884;12.534;2022-09-09T04:23:01;25.50;99.90
33414;DHT22;60055;41.884;12.534;2022-09-09T04:25:26;25.60;99.90
33414;DHT22;60055;41.884;12.534;2022-09-09T04:27:56;25.60;99.90
33414;DHT22;60055;41.884;12.534;2022-09-09T04:30:23;25.70;99.90
33414;DHT22;60055;41.884;12.534;2022-09-09T04:32:48;25.70;99.90
33414;DHT22;60055;41.884;12.534;2022-09-09T04:35:15;25.70;99.90
33414;DHT22;60055;41.884;12.534;2022-09-09T04:37:41;25.80;99.90
33414;DHT22;60055;41.884;12.534;2022-09-09T04:40:07;25.70;99.90
33414;DHT22;60055;41.884;12.534;2022-09-09T04:42:36;25.70;99.90
33414;DHT22;60055;41.884;12.534;2022-09-09T04:45:03;25.70;99.90
33414;DHT22;60055;41.884;12.534;2022-09-09T04:47:28;25.70;99.90
33414;DHT22;60055;41.884;12.534;2022-09-09T04:49:54;25.90;99.90
33414;DHT22;60055;41.884;12.534;2022-09-09T04:52:20;26.10;99.90
33414;DHT22;60055;41.884;12.534;2022-09-09T04:54:46;26.10;99.90
33414;DHT22;60055;41.884;12.534;2022-09-09T04:57:12;26.10;99.90
33414;DHT22;60055;41.884;12.534;2022-09-09T04:59:37;26.00;99.90
33414;DHT22;60055;41.884;12.534;2022-09-09T05:02:05;26.10;99.90
33414;DHT22;60055;41.884;12.534;2022-09-09T05:04:30;26.10;99.90
33414;DHT22;60055;41.884;12.534;2022-09-09T05:06:58;26.10;99.90
33414;DHT22;60055;41.884;12.534;2022-09-09T05:09:24;26.10;99.90
33414;DHT22;60055;41.884;12.534;2022-09-09T05:11:50;25.90;99.90
33414;DHT22;60055;41.884;12.534;2022-09-09T05:14:16;25.70;99.90
33414;DHT22;60055;41.884;12.534;2022-09-09T05:16:44;25.60;99.90
33414;DHT22;60055;41.884;12.534;2022-09-09T05:19:10;25.90;99.90
33414;DHT22;60055;41.884;12.534;2022-09-09T05:21:36;26.10;99.90
33414;DHT22;60055;41.884;12.534;2022-09-09T05:24:02;26.10;99.90
33414;DHT22;60055;41.884;12.534;2022-09-09T05:26:28;25.90;99.90
33414;DHT22;60055;41.884;12.534;2022-09-09T05:28:54;25.70;99.90
33414;DHT22;60055;41.884;12.534;2022-09-09T05:31:21;26.00;99.90
33414;DHT22;60055;41.884;12.534;2022-09-09T05:33:47;26.20;99.90
33414;DHT22;60055;41.884;12.534;2022-09-09T05:36:16;26.30;99.90
33414;DHT22;60055;41.884;12.534;2022-09-09T05:38:43;26.20;99.90
33414;DHT22;60055;41.884;12.534;2022-09-09T05:41:10;26.20;99.90
33414;DHT22;60055;41.884;12.534;2022-09-09T05:43:41;26.20;99.90
33414;DHT22;60055;41.884;12.534;2022-09-09T05:46:19;26.20;99.90
33414;DHT22;60055;41.884;12.534;2022-09-09T05:48:46;26.40;99.90
33414;DHT22;60055;41.884;12.534;2022-09-09T05:51:15;26.60;99.90
33414;DHT22;60055;41.884;12.534;2022-09-09T05:53:41;26.70;99.90
33414;DHT22;60055;41.884;12.534;2022-09-09T05:56:09;27.00;99.90
33414;DHT22;60055;41.884;12.534;2022-09-09T05:58:36;27.20;99.90
33414;DHT22;60055;41.884;12.534;2022-09-09T06:03:33;27.80;99.90
33414;DHT22;60055;41.884;12.534;2022-09-09T06:06:00;27.80;99.90
33414;DHT22;60055;41.884;12.534;2022-09-09T06:08:27;27.80;99.90
33414;DHT22;60055;41.884;12.534;2022-09-09T06:10:53;27.90;99.90
33414;DHT22;60055;41.884;12.534;2022-09-09T06:13:27;27.90;99.90
33414;DHT22;60055;41.884;12.534;2022-09-09T06:15:53;27.70;99.90
33414;DHT22;60055;41.884;12.534;2022-09-09T06:18:19;28.00;99.90
33414;DHT22;60055;41.884;12.534;2022-09-09T06:23:21;29.10;99.90
33414;DHT22;60055;41.884;12.534;2022-09-09T06:25:46;28.90;99.90
33414;DHT22;60055;41.884;12.534;2022-09-09T06:28:12;29.10;99.90
33414;DHT22;60055;41.884;12.534;2022-09-09T06:30:40;29.50;99.90
33414;DHT22;60055;41.884;12.534;2022-09-09T06:33:06;29.50;99.90
33414;DHT22;60055;41.884;12.534;2022-09-09T06:35:32;29.40;99.90
33414;DHT22;60055;41.884;12.534;2022-09-09T06:37:58;29.10;99.90
33414;DHT22;60055;41.884;12.534;2022-09-09T06:40:24;29.10;99.90
33414;DHT22;60055;41.884;12.534;2022-09-09T06:42:50;29.30;99.90
33414;DHT22;60055;41.884;12.534;2022-09-09T06:45:16;29.70;99.90
33414;DHT22;60055;41.884;12.534;2022-09-09T06:47:42;30.10;99.90
33414;DHT22;60055;41.884;12.534;2022-09-09T06:50:08;30.20;99.90
33414;DHT22;60055;41.884;12.534;2022-09-09T06:52:36;30.50;99.90
33414;DHT22;60055;41.884;12.534;2022-09-09T06:55:02;30.50;99.90
33414;DHT22;60055;41.884;12.534;2022-09-09T06:57:28;30.40;99.90
33414;DHT22;60055;41.884;12.534;2022-09-09T06:59:54;30.50;99.90
33414;DHT22;60055;41.884;12.534;2022-09-09T07:02:20;30.70;99.90
33414;DHT22;60055;41.884;12.534;2022-09-09T07:04:47;31.10;99.90
33414;DHT22;60055;41.884;12.534;2022-09-09T07:07:15;31.20;99.90
33414;DHT22;60055;41.884;12.534;2022-09-09T07:09:41;31.40;99.90
33414;DHT22;60055;41.884;12.534;2022-09-09T07:12:06;30.90;99.90
33414;DHT22;60055;41.884;12.534;2022-09-09T07:14:32;30.60;99.90
33414;DHT22;60055;41.884;12.534;2022-09-09T07:16:59;30.20;99.90
33414;DHT22;60055;41.884;12.534;2022-09-09T07:19:25;29.90;99.90
33414;DHT22;60055;41.884;12.534;2022-09-09T07:21:51;29.90;99.90
33414;DHT22;60055;41.884;12.534;2022-09-09T07:24:17;30.40;99.90
33414;DHT22;60055;41.884;12.534;2022-09-09T07:26:43;30.90;99.90
33414;DHT22;60055;41.884;12.534;2022-09-09T07:29:09;30.50;99.90
33414;DHT22;60055;41.884;12.534;2022-09-09T07:31:39;30.90;99.90
33414;DHT22;60055;41.884;12.534;2022-09-09T07:34:05;31.30;99.90
33414;DHT22;60055;41.884;12.534;2022-09-09T07:36:36;31.70;99.90
33414;DHT22;60055;41.884;12.534;2022-09-09T07:39:06;31.80;99.90
33414;DHT22;60055;41.884;12.534;2022-09-09T07:41:34;31.70;99.90
33414;DHT22;60055;41.884;12.534;2022-09-09T07:44:10;31.40;99.90
33414;DHT22;60055;41.884;12.534;2022-09-09T07:46:37;31.60;99.90
33414;DHT22;60055;41.884;12.534;2022-09-09T07:49:05;31.80;99.90
33414;DHT22;60055;41.884;12.534;2022-09-09T07:51:36;31.60;99.90
33414;DHT22;60055;41.884;12.534;2022-09-09T07:54:08;32.30;99.90
33414;DHT22;60055;41.884;12.534;2022-09-09T07:56:35;32.50;99.90
33414;DHT22;60055;41.884;12.534;2022-09-09T07:59:01;32.60;99.90
33414;DHT22;60055;41.884;12.534;2022-09-09T08:01:36;32.50;99.90
33414;DHT22;60055;41.884;12.534;2022-09-09T08:04:06;32.40;99.90
33414;DHT22;60055;41.884;12.534;2022-09-09T08:06:44;32.80;99.90
33414;DHT22;60055;41.884;12.534;2022-09-09T08:09:12;33.00;99.90
33414;DHT22;60055;41.884;12.534;2022-09-09T08:11:39;32.10;99.90
33414;DHT22;60055;41.884;12.534;2022-09-09T08:14:05;31.60;99.90
33414;DHT22;60055;41.884;12.534;2022-09-09T08:16:34;31.30;99.90
33414;DHT22;60055;41.884;12.534;2022-09-09T08:19:03;31.10;99.90
33414;DHT22;60055;41.884;12.534;2022-09-09T08:21:31;31.90;99.90
33414;DHT22;60055;41.884;12.534;2022-09-09T08:24:00;31.80;99.90
33414;DHT22;60055;41.884;12.534;2022-09-09T08:26:42;31.60;99.90
33414;DHT22;60055;41.884;12.534;2022-09-09T08:29:09;31.80;99.90
33414;DHT22;60055;41.884;12.534;2022-09-09T08:31:50;31.80;99.90
33414;DHT22;60055;41.884;12.534;2022-09-09T08:34:17;31.50;99.90
33414;DHT22;60055;41.884;12.534;2022-09-09T08:36:46;31.20;99.90
33414;DHT22;60055;41.884;12.534;2022-09-09T08:39:14;31.60;99.90
33414;DHT22;60055;41.884;12.534;2022-09-09T08:47:24;31.00;99.90
33414;DHT22;60055;41.884;12.534;2022-09-09T08:53:09;31.50;99.90
33414;DHT22;60055;41.884;12.534;2022-09-09T08:55:55;31.50;99.90
33414;DHT22;60055;41.884;12.534;2022-09-09T08:58:34;31.30;99.90
33414;DHT22;60055;41.884;12.534;2022-09-09T09:03:50;31.40;99.90
33414;DHT22;60055;41.884;12.534;2022-09-09T09:11:25;30.70;99.90
33414;DHT22;60055;41.884;12.534;2022-09-09T09:14:09;30.60;99.90
33414;DHT22;60055;41.884;12.534;2022-09-09T09:19:14;30.80;99.90
33414;DHT22;60055;41.884;12.534;2022-09-09T09:21:44;30.60;99.90
33414;DHT22;60055;41.884;12.534;2022-09-09T09:24:20;30.40;99.90
33414;DHT22;60055;41.884;12.534;2022-09-09T09:26:47;30.20;99.90
33414;DHT22;60055;41.884;12.534;2022-09-09T09:29:16;30.30;99.90
33414;DHT22;60055;41.884;12.534;2022-09-09T09:31:52;30.60;99.90
33414;DHT22;60055;41.884;12.534;2022-09-09T09:34:20;30.80;99.90
33414;DHT22;60055;41.884;12.534;2022-09-09T09:36:57;31.00;99.90
33414;DHT22;60055;41.884;12.534;2022-09-09T09:39:28;31.20;99.90
33414;DHT22;60055;41.884;12.534;2022-09-09T09:41:54;31.40;99.90
33414;DHT22;60055;41.884;12.534;2022-09-09T09:44:30;31.20;99.90
33414;DHT22;60055;41.884;12.534;2022-09-09T09:47:16;31.10;99.90
33414;DHT22;60055;41.884;12.534;2022-09-09T09:49:56;31.30;99.90
33414;DHT22;60055;41.884;12.534;2022-09-09T09:52:28;31.40;99.90
33414;DHT22;60055;41.884;12.534;2022-09-09T09:54:56;31.40;99.90
33414;DHT22;60055;41.884;12.534;2022-09-09T09:57:30;31.60;99.90
33414;DHT22;60055;41.884;12.534;2022-09-09T10:00:15;31.50;99.90
33414;DHT22;60055;41.884;12.534;2022-09-09T10:02:44;31.60;99.90
33414;DHT22;60055;41.884;12.534;2022-09-09T10:05:17;31.70;99.90
33414;DHT22;60055;41.884;12.534;2022-09-09T10:07:43;31.50;99.90
33414;DHT22;60055;41.884;12.534;2022-09-09T10:10:24;31.40;99.90
33414;DHT22;60055;41.884;12.534;2022-09-09T10:24:07;31.60;99.90
33414;DHT22;60055;41.884;12.534;2022-09-09T10:40:38;31.60;99.90
33414;DHT22;60055;41.884;12.534;2022-09-09T10:46:16;31.50;99.90
33414;DHT22;60055;41.884;12.534;2022-09-09T10:49:01;31.50;99.90
33414;DHT22;60055;41.884;12.534;2022-09-09T10:55:07;31.50;99.90
33414;DHT22;60055;41.884;12.534;2022-09-09T10:57:44;31.40;99.90
33414;DHT22;60055;41.884;12.534;2022-09-09T11:00:36;31.40;99.90
33414;DHT22;60055;41.884;12.534;2022-09-09T11:03:04;31.40;99.90
33414;DHT22;60055;41.884;12.534;2022-09-09T11:05:39;31.40;99.90
33414;DHT22;60055;41.884;12.534;2022-09-09T11:08:29;31.60;99.90
33414;DHT22;60055;41.884;12.534;2022-09-09T11:11:07;31.60;99.90
33414;DHT22;60055;41.884;12.534;2022-09-09T11:18:39;31.70;99.90
33414;DHT22;60055;41.884;12.534;2022-09-09T11:21:12;31.80;99.90
33414;DHT22;60055;41.884;12.534;2022-09-09T11:23:48;31.50;99.90
33414;DHT22;60055;41.884;12.534;2022-09-09T11:26:21;31.10;99.90
33414;DHT22;60055;41.884;12.534;2022-09-09T11:37:21;29.80;99.90
33414;DHT22;60055;41.884;12.534;2022-09-09T11:42:24;30.30;99.90
33414;DHT22;60055;41.884;12.534;2022-09-09T11:44:50;30.50;99.90
33414;DHT22;60055;41.884;12.534;2022-09-09T11:47:29;30.60;99.90
33414;DHT22;60055;41.884;12.534;2022-09-09T11:52:45;30.80;99.90
33414;DHT22;60055;41.884;12.534;2022-09-09T12:00:39;31.40;99.90
33414;DHT22;60055;41.884;12.534;2022-09-09T12:03:06;31.40;99.90
33414;DHT22;60055;41.884;12.534;2022-09-09T12:05:51;31.40;99.90
33414;DHT22;60055;41.884;12.534;2022-09-09T12:08:26;31.40;99.90
33414;DHT22;60055;41.884;12.534;2022-09-09T12:10:59;31.40;99.90
33414;DHT22;60055;41.884;12.534;2022-09-09T12:13:28;31.60;99.90
33414;DHT22;60055;41.884;12.534;2022-09-09T12:15:57;31.60;99.90
33414;DHT22;60055;41.884;12.534;2022-09-09T12:18:33;31.70;99.90
33414;DHT22;60055;41.884;12.534;2022-09-09T12:21:34;31.70;99.90
33414;DHT22;60055;41.884;12.534;2022-09-09T12:24:49;31.70;99.90
33414;DHT22;60055;41.884;12.534;2022-09-09T12:32:24;31.90;99.90
33414;DHT22;60055;41.884;12.534;2022-09-09T12:34:54;31.90;99.90
33414;DHT22;60055;41.884;12.534;2022-09-09T12:37:35;31.60;99.90
33414;DHT22;60055;41.884;12.534;2022-09-09T12:40:17;31.60;99.90
33414;DHT22;60055;41.884;12.534;2022-09-09T12:42:44;31.20;99.90
33414;DHT22;60055;41.884;12.534;2022-09-09T12:45:21;31.40;99.90
33414;DHT22;60055;41.884;12.534;2022-09-09T12:48:00;31.80;99.90
33414;DHT22;60055;41.884;12.534;2022-09-09T12:50:31;32.00;99.90
33414;DHT22;60055;41.884;12.534;2022-09-09T12:53:28;32.00;99.90
33414;DHT22;60055;41.884;12.534;2022-09-09T12:56:19;31.60;99.90
33414;DHT22;60055;41.884;12.534;2022-09-09T12:58:47;31.40;99.90
33414;DHT22;60055;41.884;12.534;2022-09-09T13:01:26;31.40;99.90
33414;DHT22;60055;41.884;12.534;2022-09-09T13:03:52;31.40;99.90
33414;DHT22;60055;41.884;12.534;2022-09-09T13:06:29;31.30;99.90
33414;DHT22;60055;41.884;12.534;2022-09-09T13:08:59;31.00;99.90
33414;DHT22;60055;41.884;12.534;2022-09-09T13:11:36;31.00;99.90
33414;DHT22;60055;41.884;12.534;2022-09-09T13:14:02;31.00;99.90
33414;DHT22;60055;41.884;12.534;2022-09-09T13:16:33;31.00;99.90
33414;DHT22;60055;41.884;12.534;2022-09-09T13:19:13;31.10;99.90
33414;DHT22;60055;41.884;12.534;2022-09-09T13:21:40;31.10;99.90
33414;DHT22;60055;41.884;12.534;2022-09-09T13:24:21;31.00;99.90
33414;DHT22;60055;41.884;12.534;2022-09-09T13:26:59;31.00;99.90
33414;DHT22;60055;41.884;12.534;2022-09-09T13:29:27;30.90;99.90
33414;DHT22;60055;41.884;12.534;2022-09-09T13:31:54;30.90;99.90
33414;DHT22;60055;41.884;12.534;2022-09-09T13:34:30;31.00;99.90
33414;DHT22;60055;41.884;12.534;2022-09-09T13:37:02;31.20;99.90
33414;DHT22;60055;41.884;12.534;2022-09-09T13:39:29;31.20;99.90
33414;DHT22;60055;41.884;12.534;2022-09-09T13:41:55;31.30;99.90
33414;DHT22;60055;41.884;12.534;2022-09-09T13:44:25;31.50;99.90
33414;DHT22;60055;41.884;12.534;2022-09-09T13:49:29;31.20;99.90
33414;DHT22;60055;41.884;12.534;2022-09-09T13:52:04;31.50;99.90
33414;DHT22;60055;41.884;12.534;2022-09-09T13:54:31;31.70;99.90
33414;DHT22;60055;41.884;12.534;2022-09-09T13:56:57;31.80;99.90
33414;DHT22;60055;41.884;12.534;2022-09-09T13:59:22;31.80;99.90
33414;DHT22;60055;41.884;12.534;2022-09-09T14:01:49;32.00;99.90
33414;DHT22;60055;41.884;12.534;2022-09-09T14:04:18;31.80;99.90
33414;DHT22;60055;41.884;12.534;2022-09-09T14:06:46;31.60;99.90
33414;DHT22;60055;41.884;12.534;2022-09-09T14:09:14;31.60;99.90
33414;DHT22;60055;41.884;12.534;2022-09-09T14:11:40;31.90;99.90
33414;DHT22;60055;41.884;12.534;2022-09-09T14:14:06;31.60;99.90
33414;DHT22;60055;41.884;12.534;2022-09-09T14:16:32;31.50;99.90
33414;DHT22;60055;41.884;12.534;2022-09-09T14:18:58;31.40;99.90
33414;DHT22;60055;41.884;12.534;2022-09-09T14:21:25;31.60;99.90
33414;DHT22;60055;41.884;12.534;2022-09-09T14:23:51;31.40;99.90
33414;DHT22;60055;41.884;12.534;2022-09-09T14:26:18;31.40;99.90
33414;DHT22;60055;41.884;12.534;2022-09-09T14:28:47;31.40;99.90
33414;DHT22;60055;41.884;12.534;2022-09-09T14:31:13;31.40;99.90
33414;DHT22;60055;41.884;12.534;2022-09-09T14:33:39;31.30;99.90
33414;DHT22;60055;41.884;12.534;2022-09-09T14:36:06;31.40;99.90
33414;DHT22;60055;41.884;12.534;2022-09-09T14:38:33;31.20;99.90
33414;DHT22;60055;41.884;12.534;2022-09-09T14:41:02;31.00;74.80
33414;DHT22;60055;41.884;12.534;2022-09-09T14:43:29;31.00;99.90
33414;DHT22;60055;41.884;12.534;2022-09-09T14:45:55;31.00;99.90
33414;DHT22;60055;41.884;12.534;2022-09-09T14:48:21;31.10;99.90
33414;DHT22;60055;41.884;12.534;2022-09-09T14:50:46;31.00;99.90
33414;DHT22;60055;41.884;12.534;2022-09-09T14:53:12;30.80;99.90
33414;DHT22;60055;41.884;12.534;2022-09-09T14:55:38;30.80;99.90
33414;DHT22;60055;41.884;12.534;2022-09-09T14:58:04;30.80;99.90
33414;DHT22;60055;41.884;12.534;2022-09-09T15:00:31;30.70;99.90
33414;DHT22;60055;41.884;12.534;2022-09-09T15:02:57;30.60;99.90
33414;DHT22;60055;41.884;12.534;2022-09-09T15:05:23;30.40;99.90
33414;DHT22;60055;41.884;12.534;2022-09-09T15:07:50;30.50;99.90
33414;DHT22;60055;41.884;12.534;2022-09-09T15:10:15;30.40;99.90
33414;DHT22;60055;41.884;12.534;2022-09-09T15:12:43;30.30;99.90
33414;DHT22;60055;41.884;12.534;2022-09-09T15:15:09;30.30;99.90
33414;DHT22;60055;41.884;12.534;2022-09-09T15:17:35;30.30;99.90
33414;DHT22;60055;41.884;12.534;2022-09-09T15:20:02;30.40;99.90
33414;DHT22;60055;41.884;12.534;2022-09-09T15:22:28;30.40;99.90
33414;DHT22;60055;41.884;12.534;2022-09-09T15:24:53;30.30;99.90
33414;DHT22;60055;41.884;12.534;2022-09-09T15:27:19;30.30;99.90
33414;DHT22;60055;41.884;12.534;2022-09-09T15:29:45;30.40;99.90
33414;DHT22;60055;41.884;12.534;2022-09-09T15:32:12;30.30;99.90
33414;DHT22;60055;41.884;12.534;2022-09-09T15:34:38;30.30;99.90
33414;DHT22;60055;41.884;12.534;2022-09-09T15:37:03;30.30;99.90
33414;DHT22;60055;41.884;12.534;2022-09-09T15:39:29;30.30;99.90
33414;DHT22;60055;41.884;12.534;2022-09-09T15:41:54;30.30;99.90
33414;DHT22;60055;41.884;12.534;2022-09-09T15:44:20;30.30;99.90
33414;DHT22;60055;41.884;12.534;2022-09-09T15:46:49;30.30;99.90
33414;DHT22;60055;41.884;12.534;2022-09-09T15:49:23;30.20;99.90
33414;DHT22;60055;41.884;12.534;2022-09-09T15:51:58;30.20;99.90
33414;DHT22;60055;41.884;12.534;2022-09-09T15:54:27;30.10;99.90
33414;DHT22;60055;41.884;12.534;2022-09-09T15:56:58;30.10;99.90
33414;DHT22;60055;41.884;12.534;2022-09-09T15:59:25;30.10;99.90
33414;DHT22;60055;41.884;12.534;2022-09-09T16:01:51;30.10;99.90
33414;DHT22;60055;41.884;12.534;2022-09-09T16:04:18;30.10;99.90
33414;DHT22;60055;41.884;12.534;2022-09-09T16:06:53;30.00;99.90
33414;DHT22;60055;41.884;12.534;2022-09-09T16:09:20;29.90;99.90
33414;DHT22;60055;41.884;12.534;2022-09-09T16:11:46;29.90;99.90
33414;DHT22;60055;41.884;12.534;2022-09-09T16:14:13;29.80;99.90
33414;DHT22;60055;41.884;12.534;2022-09-09T16:16:40;29.90;99.90
33414;DHT22;60055;41.884;12.534;2022-09-09T16:19:09;29.80;99.90
33414;DHT22;60055;41.884;12.534;2022-09-09T16:21:41;29.70;99.90
33414;DHT22;60055;41.884;12.534;2022-09-09T16:24:08;29.50;99.90
33414;DHT22;60055;41.884;12.534;2022-09-09T16:26:37;29.50;99.90
33414;DHT22;60055;41.884;12.534;2022-09-09T16:29:04;29.40;99.90
33414;DHT22;60055;41.884;12.534;2022-09-09T16:31:30;29.40;99.90
33414;DHT22;60055;41.884;12.534;2022-09-09T16:33:59;29.30;99.90
33414;DHT22;60055;41.884;12.534;2022-09-09T16:36:29;29.30;99.90
33414;DHT22;60055;41.884;12.534;2022-09-09T16:38:58;29.30;99.90
33414;DHT22;60055;41.884;12.534;2022-09-09T16:41:26;29.30;99.90
33414;DHT22;60055;41.884;12.534;2022-09-09T16:43:57;29.30;99.90
33414;DHT22;60055;41.884;12.534;2022-09-09T16:46:25;29.40;99.90
33414;DHT22;60055;41.884;12.534;2022-09-09T16:48:51;29.20;99.90
33414;DHT22;60055;41.884;12.534;2022-09-09T16:51:20;29.20;99.90
33414;DHT22;60055;41.884;12.534;2022-09-09T16:53:46;29.10;99.90
33414;DHT22;60055;41.884;12.534;2022-09-09T16:56:14;29.20;99.90
33414;DHT22;60055;41.884;12.534;2022-09-09T16:58:40;29.00;99.90
33414;DHT22;60055;41.884;12.534;2022-09-09T17:01:09;29.00;99.90
33414;DHT22;60055;41.884;12.534;2022-09-09T17:03:35;29.00;99.90
33414;DHT22;60055;41.884;12.534;2022-09-09T17:06:02;28.90;99.90
33414;DHT22;60055;41.884;12.534;2022-09-09T17:08:31;28.90;99.90
33414;DHT22;60055;41.884;12.534;2022-09-09T17:10:58;28.90;99.90
33414;DHT22;60055;41.884;12.534;2022-09-09T17:13:25;28.80;99.90
33414;DHT22;60055;41.884;12.534;2022-09-09T17:15:51;28.70;99.90
33414;DHT22;60055;41.884;12.534;2022-09-09T17:18:16;28.70;99.90
33414;DHT22;60055;41.884;12.534;2022-09-09T17:20:42;28.60;99.90
33414;DHT22;60055;41.884;12.534;2022-09-09T17:23:10;28.60;99.90
33414;DHT22;60055;41.884;12.534;2022-09-09T17:25:37;28.50;99.90
33414;DHT22;60055;41.884;12.534;2022-09-09T17:28:03;28.50;99.90
33414;DHT22;60055;41.884;12.534;2022-09-09T17:30:38;28.50;99.90
33414;DHT22;60055;41.884;12.534;2022-09-09T17:33:04;28.40;99.90
33414;DHT22;60055;41.884;12.534;2022-09-09T17:35:30;28.40;99.90
33414;DHT22;60055;41.884;12.534;2022-09-09T17:37:56;28.30;99.90
33414;DHT22;60055;41.884;12.534;2022-09-09T17:40:23;28.30;99.90
33414;DHT22;60055;41.884;12.534;2022-09-09T17:42:49;28.30;99.90